Poe, Indiana
Current Conditions -  °F | °C
As of 4:54 AM on Monday 20 Oct 2014 (Local Time) from KFWA Reporting Station
Overcast Overcast  
Wind Chill:   Ceiling: 9500
Heat Index:   Visibility: 10mi
Dew Point:   Wind: 8mph
Humidity: 83%   Direction: 210°SSW
Pressure: 29.93"   Gusts: NA
Location:  40.9649°N, 85.1332°W
Report Text: KFWA 200854Z 21007KT 10SM OVC095 08/06 A2993 RMK AO2 SLP138 T00830056 58023
Loading
Personal Weather Stations






























Interactive Weather Map
Tropical Storm Tracking
New forecast layout! Learn more

10-Day Weather Forecast

Advertisements
Track Severe Weather on mobile